createdAt,value
2024-03-02T00:00:52.895Z,30.70
2024-03-02T00:03:43.862Z,29.10
2024-03-02T00:06:12.107Z,29.60
2024-03-02T00:08:40.596Z,29.90
2024-03-02T00:11:08.844Z,32.40
2024-03-02T00:13:38.532Z,30.70
2024-03-02T00:16:07.057Z,30.70
2024-03-02T00:18:37.143Z,31.50
2024-03-02T00:21:10.708Z,30.30
2024-03-02T00:23:40.046Z,31.30
2024-03-02T00:26:09.876Z,31.30
2024-03-02T00:28:39.604Z,30.20
2024-03-02T00:31:14.126Z,31.30
2024-03-02T00:33:48.013Z,30.00
2024-03-02T00:36:18.353Z,31.80
2024-03-02T00:38:49.409Z,30.10
2024-03-02T00:41:29.344Z,29.80
2024-03-02T00:44:02.931Z,31.10
2024-03-02T00:46:45.059Z,30.50
2024-03-02T00:49:24.026Z,29.50
2024-03-02T00:51:54.196Z,30.30
2024-03-02T00:54:25.639Z,30.60
2024-03-02T00:56:56.419Z,29.20
2024-03-02T00:59:25.347Z,30.60
2024-03-02T01:01:53.846Z,30.60
2024-03-02T01:04:21.926Z,29.00
2024-03-02T01:06:50.351Z,29.60
2024-03-02T01:09:19.195Z,29.80
2024-03-02T01:11:47.720Z,29.30
2024-03-02T01:14:16.593Z,28.60
2024-03-02T01:16:44.626Z,29.90
2024-03-02T01:19:12.862Z,31.20
2024-03-02T01:21:41.050Z,29.60
2024-03-02T01:24:09.061Z,31.00
2024-03-02T01:26:37.244Z,29.00
2024-03-02T01:29:05.154Z,31.00
2024-03-02T01:31:33.835Z,28.60
2024-03-02T01:34:02.206Z,29.60
2024-03-02T01:36:30.502Z,29.40
2024-03-02T01:38:58.751Z,29.40
2024-03-02T01:41:26.987Z,29.90
2024-03-02T01:43:55.104Z,28.60
2024-03-02T01:49:42.446Z,26.60
2024-03-02T01:52:10.626Z,28.20
2024-03-02T01:54:38.723Z,28.10
2024-03-02T01:57:08.044Z,28.10
2024-03-02T01:59:36.009Z,29.30
2024-03-02T02:02:04.536Z,29.30
2024-03-02T02:04:32.659Z,28.70
2024-03-02T02:07:01.167Z,30.10
2024-03-02T02:09:29.310Z,28.20
2024-03-02T02:11:57.351Z,30.70
2024-03-02T02:14:25.504Z,30.50
2024-03-02T02:16:53.608Z,30.10
2024-03-02T02:19:21.588Z,30.10
2024-03-02T02:21:52.945Z,30.70
2024-03-02T02:24:21.441Z,23.90
2024-03-02T02:26:49.521Z,31.40
2024-03-02T02:29:17.624Z,30.80
2024-03-02T02:31:45.500Z,28.90
2024-03-02T02:34:15.542Z,32.60
2024-03-02T02:36:44.399Z,31.60
2024-03-02T02:39:17.158Z,29.90
2024-03-02T02:41:45.159Z,32.10
2024-03-02T02:44:14.237Z,32.80
2024-03-02T02:46:42.540Z,32.10
2024-03-02T02:49:10.627Z,31.00
2024-03-02T02:51:38.915Z,33.20
2024-03-02T02:54:06.873Z,31.70
2024-03-02T02:56:34.889Z,31.40
2024-03-02T02:59:02.987Z,31.60
2024-03-02T03:01:31.312Z,31.00
2024-03-02T03:03:59.581Z,31.40
2024-03-02T03:06:27.567Z,30.20
2024-03-02T03:08:55.464Z,32.10
2024-03-02T03:11:26.091Z,32.50
2024-03-02T03:13:55.660Z,33.10
2024-03-02T03:16:23.629Z,32.90
2024-03-02T03:18:53.012Z,31.50
2024-03-02T03:21:21.246Z,32.30
2024-03-02T03:23:49.429Z,31.10
2024-03-02T03:26:17.492Z,31.60
2024-03-02T03:28:45.747Z,30.50
2024-03-02T03:31:13.752Z,31.40
2024-03-02T03:33:41.697Z,31.60
2024-03-02T03:36:09.858Z,33.40
2024-03-02T03:38:37.927Z,32.40
2024-03-02T03:41:05.894Z,33.20
2024-03-02T03:43:33.899Z,33.40
2024-03-02T03:46:02.463Z,33.10
2024-03-02T03:48:32.146Z,33.10
2024-03-02T03:51:00.097Z,31.00
2024-03-02T03:53:28.200Z,33.40
2024-03-02T03:55:56.235Z,35.10
2024-03-02T03:58:24.178Z,33.00
2024-03-02T04:05:21.474Z,32.40
2024-03-02T04:07:49.506Z,30.90
2024-03-02T04:10:18.233Z,32.40
2024-03-02T04:12:46.435Z,31.70
2024-03-02T04:15:14.512Z,32.20
2024-03-02T04:17:42.528Z,32.60
2024-03-02T04:20:11.235Z,30.60
2024-03-02T04:22:39.662Z,32.40
2024-03-02T04:25:08.609Z,32.10
2024-03-02T04:27:36.892Z,32.40
2024-03-02T04:34:37.238Z,32.90
2024-03-02T04:37:05.356Z,34.20
2024-03-02T04:39:33.408Z,33.00
2024-03-02T04:42:01.649Z,33.30
2024-03-02T04:44:29.716Z,33.40
2024-03-02T04:46:57.894Z,32.10
2024-03-02T04:49:25.995Z,33.60
2024-03-02T04:51:54.013Z,32.20
2024-03-02T04:54:22.190Z,30.30
2024-03-02T04:56:53.204Z,32.30
2024-03-02T04:59:21.319Z,32.20
2024-03-02T05:01:49.371Z,31.30
2024-03-02T05:04:17.496Z,31.20
2024-03-02T05:06:45.683Z,31.30
2024-03-02T05:09:13.579Z,32.60
2024-03-02T05:11:41.514Z,34.00
2024-03-02T05:14:09.637Z,32.30
2024-03-02T05:16:41.416Z,31.90
2024-03-02T05:19:09.383Z,32.70
2024-03-02T05:21:37.394Z,32.30
2024-03-02T05:24:05.718Z,30.20
2024-03-02T05:26:33.806Z,31.40
2024-03-02T05:29:01.670Z,35.10
2024-03-02T05:31:29.598Z,33.60
2024-03-02T05:33:58.695Z,33.10
2024-03-02T05:36:27.157Z,33.40
2024-03-02T05:38:55.116Z,34.60
2024-03-02T05:41:23.006Z,34.30
2024-03-02T05:43:50.870Z,34.20
2024-03-02T05:46:19.550Z,33.20
2024-03-02T05:48:47.742Z,33.60
2024-03-02T05:51:15.681Z,34.70
2024-03-02T05:53:44.101Z,32.20
2024-03-02T05:56:13.330Z,33.50
2024-03-02T05:58:48.323Z,34.40
2024-03-02T06:01:16.611Z,34.40
2024-03-02T06:03:45.248Z,34.20
2024-03-02T06:06:13.363Z,34.60
2024-03-02T06:08:41.405Z,33.70
2024-03-02T06:11:09.467Z,36.10
2024-03-02T06:13:37.462Z,37.50
2024-03-02T06:16:06.218Z,33.80
2024-03-02T06:18:34.569Z,35.00
2024-03-02T06:21:04.099Z,33.30
2024-03-02T06:23:32.073Z,35.30
2024-03-02T06:26:00.090Z,36.00
2024-03-02T06:28:28.140Z,32.80
2024-03-02T06:30:56.266Z,34.10
2024-03-02T06:33:24.477Z,33.30
2024-03-02T06:35:52.491Z,34.00
2024-03-02T06:38:20.580Z,33.10
2024-03-02T06:40:49.163Z,33.90
2024-03-02T06:43:17.261Z,33.40
2024-03-02T06:45:45.409Z,32.60
2024-03-02T06:48:13.715Z,32.80
2024-03-02T06:50:42.011Z,31.80
2024-03-02T06:53:09.953Z,33.80
2024-03-02T06:55:37.953Z,31.00
2024-03-02T06:58:06.521Z,30.80
2024-03-02T07:00:34.661Z,31.30
2024-03-02T07:03:03.518Z,31.10
2024-03-02T07:05:31.449Z,30.50
2024-03-02T07:07:59.499Z,30.90
2024-03-02T07:10:27.430Z,29.60
2024-03-02T07:12:55.462Z,31.00
2024-03-02T07:15:40.370Z,27.80
2024-03-02T07:18:08.590Z,30.00
2024-03-02T07:20:36.550Z,30.00
2024-03-02T07:23:04.568Z,29.40
2024-03-02T07:28:04.126Z,28.50
2024-03-02T07:30:34.279Z,27.70
2024-03-02T07:33:02.444Z,28.10
2024-03-02T07:35:32.919Z,28.00
2024-03-02T07:38:01.093Z,27.60
2024-03-02T07:40:29.212Z,28.50
2024-03-02T07:42:57.660Z,28.20
2024-03-02T07:45:25.647Z,26.80
2024-03-02T07:47:53.897Z,27.00
2024-03-02T07:50:21.860Z,28.30
2024-03-02T07:52:49.986Z,26.70
2024-03-02T07:55:18.089Z,28.20
2024-03-02T07:57:46.161Z,27.30
2024-03-02T08:00:15.906Z,28.50
2024-03-02T08:02:44.374Z,26.30
2024-03-02T08:05:12.892Z,26.60
2024-03-02T08:07:42.249Z,26.60
2024-03-02T08:10:10.748Z,26.00
2024-03-02T08:12:38.845Z,27.70
2024-03-02T08:15:07.930Z,26.70
2024-03-02T08:17:38.221Z,27.20
2024-03-02T08:20:08.102Z,26.60
2024-03-02T08:22:36.453Z,27.20
2024-03-02T08:25:05.331Z,25.50
2024-03-02T08:27:34.459Z,26.90
2024-03-02T08:30:05.074Z,26.90
2024-03-02T08:32:33.185Z,26.50
2024-03-02T08:35:01.253Z,28.20
2024-03-02T08:37:29.787Z,25.60
2024-03-02T08:39:57.941Z,25.90
2024-03-02T08:42:26.111Z,25.10
2024-03-02T08:44:54.120Z,26.20
2024-03-02T08:47:22.105Z,25.50
2024-03-02T08:49:50.029Z,25.60
2024-03-02T08:52:18.126Z,25.80
2024-03-02T08:54:46.310Z,25.50
2024-03-02T08:57:14.579Z,24.50
2024-03-02T08:59:42.921Z,25.90
2024-03-02T09:02:12.151Z,24.40
2024-03-02T09:04:40.121Z,25.30
2024-03-02T09:07:08.930Z,24.80
2024-03-02T09:09:36.959Z,23.30
2024-03-02T09:12:05.705Z,23.40
2024-03-02T09:14:34.604Z,25.00
2024-03-02T09:17:03.594Z,24.00
2024-03-02T09:19:31.622Z,22.90
2024-03-02T09:22:00.289Z,23.50
2024-03-02T09:24:28.432Z,23.10
2024-03-02T09:26:56.368Z,23.60
2024-03-02T09:29:24.416Z,24.30
2024-03-02T09:31:52.505Z,23.00
2024-03-02T09:34:20.711Z,22.80
2024-03-02T09:36:48.770Z,23.20
2024-03-02T09:39:16.909Z,22.90
2024-03-02T09:41:45.298Z,22.60
2024-03-02T09:44:13.389Z,22.30
2024-03-02T09:46:41.788Z,23.00
2024-03-02T09:49:09.837Z,22.70
2024-03-02T09:51:41.744Z,23.00
2024-03-02T09:54:18.066Z,21.30
2024-03-02T09:56:52.167Z,21.90
2024-03-02T09:59:21.495Z,22.60
2024-03-02T10:02:03.833Z,21.70
2024-03-02T10:04:33.634Z,23.30
2024-03-02T10:07:14.681Z,24.10
2024-03-02T10:09:47.036Z,23.40
2024-03-02T10:12:18.647Z,26.70
2024-03-02T10:14:49.713Z,26.70
2024-03-02T10:17:19.260Z,23.50
2024-03-02T10:19:47.401Z,22.40
2024-03-02T10:22:15.616Z,21.40
2024-03-02T10:24:50.214Z,22.10
2024-03-02T10:27:27.648Z,19.50
2024-03-02T10:30:07.832Z,21.30
2024-03-02T10:32:55.145Z,20.60
2024-03-02T10:35:27.314Z,19.80
2024-03-02T10:40:24.120Z,21.00
2024-03-02T10:42:55.037Z,20.00
2024-03-02T10:45:24.789Z,21.00
2024-03-02T10:47:53.767Z,19.70
2024-03-02T10:50:21.812Z,21.10
2024-03-02T10:52:49.762Z,21.10
2024-03-02T10:55:18.149Z,20.40
2024-03-02T10:57:55.222Z,19.90
2024-03-02T11:05:11.448Z,21.10
2024-03-02T11:07:39.163Z,20.10
2024-03-02T11:10:09.235Z,21.20
2024-03-02T11:12:52.034Z,23.40
2024-03-02T11:15:20.238Z,22.20
2024-03-02T11:17:48.250Z,21.00
2024-03-02T11:20:15.593Z,21.40
2024-03-02T11:22:44.938Z,20.50
2024-03-02T11:25:25.609Z,20.70
2024-03-02T11:28:00.961Z,20.20
2024-03-02T11:30:33.913Z,21.60
2024-03-02T11:33:03.941Z,19.40
2024-03-02T11:35:30.615Z,19.20
2024-03-02T11:37:59.951Z,19.40
2024-03-02T11:40:26.486Z,20.60
2024-03-02T11:42:53.378Z,20.20
2024-03-02T11:45:24.556Z,19.80
2024-03-02T11:47:52.218Z,20.70
2024-03-02T11:50:37.727Z,22.20
2024-03-02T11:53:09.186Z,19.30
2024-03-02T11:55:36.880Z,21.10
2024-03-02T11:58:07.451Z,19.30
2024-03-02T12:00:34.218Z,20.10
2024-03-02T12:03:01.872Z,19.80
2024-03-02T12:05:29.013Z,19.80
2024-03-02T12:07:59.905Z,20.20
2024-03-02T12:10:27.663Z,18.40
2024-03-02T12:12:59.065Z,19.10
2024-03-02T12:15:31.225Z,19.70
2024-03-02T12:17:59.670Z,19.90
2024-03-02T12:20:29.611Z,19.50
2024-03-02T12:22:58.893Z,20.30
2024-03-02T12:25:26.303Z,18.20
2024-03-02T12:27:58.603Z,20.00
2024-03-02T12:30:27.737Z,18.80
2024-03-02T12:32:54.976Z,18.50
2024-03-02T12:35:21.583Z,20.60
2024-03-02T12:37:50.091Z,20.90
2024-03-02T12:40:19.615Z,21.20
2024-03-02T12:42:47.245Z,19.90
2024-03-02T12:45:14.405Z,20.40
2024-03-02T12:47:43.128Z,20.10
2024-03-02T12:50:10.486Z,20.10
2024-03-02T12:52:37.832Z,21.10
2024-03-02T12:55:06.016Z,21.50
2024-03-02T12:57:34.875Z,21.20
2024-03-02T13:00:10.272Z,20.80
2024-03-02T13:02:40.804Z,24.20
2024-03-02T13:05:14.601Z,24.30
2024-03-02T13:07:41.743Z,24.20
2024-03-02T13:10:09.563Z,22.90
2024-03-02T13:12:37.172Z,23.40
2024-03-02T13:15:05.578Z,22.60
2024-03-02T13:17:37.865Z,22.50
2024-03-02T13:20:10.918Z,23.00
2024-03-02T13:22:38.275Z,24.90
2024-03-02T13:25:06.009Z,25.20
2024-03-02T13:27:33.259Z,24.90
2024-03-02T13:30:00.633Z,25.00
2024-03-02T13:32:27.655Z,25.30
2024-03-02T13:34:54.541Z,22.80
2024-03-02T13:37:22.197Z,22.20
2024-03-02T13:39:49.167Z,24.00
2024-03-02T13:42:16.041Z,23.10
2024-03-02T13:44:50.131Z,23.60
2024-03-02T13:47:16.766Z,23.70
2024-03-02T13:49:47.198Z,23.90
2024-03-02T13:52:13.968Z,23.90
2024-03-02T13:54:42.309Z,23.10
2024-03-02T13:57:10.244Z,25.20
2024-03-02T13:59:37.340Z,24.40
2024-03-02T14:02:06.055Z,23.20
2024-03-02T14:04:34.021Z,22.50
2024-03-02T14:07:01.022Z,27.40
2024-03-02T14:09:28.019Z,24.90
2024-03-02T14:11:55.852Z,24.10
2024-03-02T14:14:23.385Z,24.00
2024-03-02T14:16:50.001Z,24.60
2024-03-02T14:19:16.697Z,24.10
2024-03-02T14:21:43.445Z,25.00
2024-03-02T14:24:10.209Z,23.50
2024-03-02T14:26:37.384Z,24.70
2024-03-02T14:29:04.384Z,25.20
2024-03-02T14:31:31.866Z,24.10
2024-03-02T14:34:03.014Z,22.90
2024-03-02T14:36:29.791Z,24.50
2024-03-02T14:38:57.850Z,23.60
2024-03-02T14:41:24.864Z,23.90
2024-03-02T14:43:52.110Z,23.10
2024-03-02T14:46:19.045Z,24.50
2024-03-02T14:48:46.821Z,27.40
2024-03-02T14:51:14.156Z,25.00
2024-03-02T14:53:40.829Z,26.80
2024-03-02T14:56:07.861Z,27.20
2024-03-02T14:58:36.034Z,26.20
2024-03-02T15:01:04.087Z,26.30
2024-03-02T15:03:30.918Z,25.00
2024-03-02T15:05:58.120Z,24.50
2024-03-02T15:08:25.157Z,25.20
2024-03-02T15:10:51.752Z,26.30
2024-03-02T15:13:18.520Z,27.20
2024-03-02T15:15:45.318Z,27.60
2024-03-02T15:18:12.727Z,25.20
2024-03-02T15:20:40.837Z,28.00
2024-03-02T15:23:07.544Z,28.20
2024-03-02T15:25:34.386Z,29.10
2024-03-02T15:28:01.068Z,29.30
2024-03-02T15:30:27.691Z,29.70
2024-03-02T15:32:54.210Z,30.60
2024-03-02T15:35:20.786Z,28.10
2024-03-02T15:37:50.697Z,25.40
2024-03-02T15:40:18.771Z,26.20
2024-03-02T15:42:45.756Z,30.10
2024-03-02T15:45:12.613Z,30.00
2024-03-02T15:47:39.488Z,31.30
2024-03-02T15:50:07.761Z,33.80
2024-03-02T15:52:34.460Z,29.20
2024-03-02T15:55:02.185Z,36.00
2024-03-02T15:57:29.021Z,32.80
2024-03-02T15:59:56.032Z,34.50
2024-03-02T16:02:23.033Z,32.50
2024-03-02T16:04:49.614Z,32.50
2024-03-02T16:07:16.630Z,28.80
2024-03-02T16:09:43.302Z,29.80
2024-03-02T16:12:10.022Z,28.40
2024-03-02T16:14:36.654Z,30.40
2024-03-02T16:17:04.191Z,30.10
2024-03-02T16:19:33.393Z,32.00
2024-03-02T16:22:00.764Z,29.90
2024-03-02T16:24:28.162Z,31.50
2024-03-02T16:26:54.856Z,31.40
2024-03-02T16:29:21.556Z,28.80
2024-03-02T16:31:48.156Z,29.80
2024-03-02T16:34:14.876Z,34.10
2024-03-02T16:36:52.779Z,29.00
2024-03-02T16:39:31.813Z,29.90
2024-03-02T16:41:58.858Z,29.00
2024-03-02T16:44:25.485Z,29.40
2024-03-02T16:46:52.101Z,30.30
2024-03-02T16:49:18.632Z,31.70
2024-03-02T16:51:47.009Z,29.60
2024-03-02T16:54:13.780Z,30.50
2024-03-02T16:56:41.192Z,34.50
2024-03-02T16:59:08.185Z,50.70
2024-03-02T17:01:34.890Z,32.30
2024-03-02T17:04:04.385Z,32.00
2024-03-02T17:06:31.564Z,35.60
2024-03-02T17:08:58.637Z,37.10
2024-03-02T17:11:25.453Z,35.50
2024-03-02T17:13:57.679Z,34.20
2024-03-02T17:16:25.406Z,30.30
2024-03-02T17:18:52.940Z,35.50
2024-03-02T17:21:20.301Z,32.80
2024-03-02T17:23:47.519Z,34.60
2024-03-02T17:26:14.522Z,30.70
2024-03-02T17:28:42.246Z,26.40
2024-03-02T17:31:09.521Z,29.20
2024-03-02T17:33:36.687Z,30.30
2024-03-02T17:36:04.401Z,33.50
2024-03-02T17:38:31.940Z,33.00
2024-03-02T17:40:59.319Z,29.70
2024-03-02T17:43:26.054Z,29.10
2024-03-02T17:45:53.782Z,28.90
2024-03-02T17:48:22.333Z,27.10
2024-03-02T17:50:49.801Z,29.10
2024-03-02T17:53:16.788Z,27.90
2024-03-02T17:55:44.393Z,28.80
2024-03-02T17:58:11.443Z,29.10
2024-03-02T18:00:39.766Z,29.60
2024-03-02T18:03:07.261Z,29.60
2024-03-02T18:05:36.083Z,28.70
2024-03-02T18:08:03.309Z,28.40
2024-03-02T18:10:30.489Z,28.00
2024-03-02T18:12:57.289Z,28.70
2024-03-02T18:15:24.148Z,29.60
2024-03-02T18:17:50.921Z,27.60
2024-03-02T18:20:17.754Z,29.40
2024-03-02T18:22:44.689Z,28.90
2024-03-02T18:25:11.532Z,27.90
2024-03-02T18:27:39.023Z,28.00
2024-03-02T18:30:10.292Z,26.00
2024-03-02T18:32:39.916Z,27.90
2024-03-02T18:35:08.983Z,28.50
2024-03-02T18:37:38.535Z,28.80
2024-03-02T18:40:07.452Z,28.40
2024-03-02T18:42:35.542Z,27.70
2024-03-02T18:45:05.710Z,28.70
2024-03-02T18:47:35.015Z,27.10
2024-03-02T18:50:08.010Z,27.50
2024-03-02T18:52:36.781Z,28.00
2024-03-02T18:55:04.841Z,28.10
2024-03-02T18:57:31.943Z,28.50
2024-03-02T18:59:59.135Z,27.90
2024-03-02T19:04:53.263Z,30.70
2024-03-02T19:07:20.076Z,31.10
2024-03-02T19:09:47.059Z,31.50
2024-03-02T19:12:13.671Z,31.20
2024-03-02T19:14:40.325Z,31.30
2024-03-02T19:17:33.842Z,29.80
2024-03-02T19:20:01.346Z,29.80
2024-03-02T19:22:28.925Z,28.40
2024-03-02T19:24:57.206Z,30.30
2024-03-02T19:27:24.025Z,29.20
2024-03-02T19:29:50.724Z,29.70
2024-03-02T19:32:21.381Z,28.90
2024-03-02T19:34:49.974Z,29.30
2024-03-02T19:37:17.383Z,29.00
2024-03-02T19:39:48.595Z,30.90
2024-03-02T19:42:21.715Z,29.00
2024-03-02T19:44:48.380Z,27.90
2024-03-02T19:47:18.862Z,26.80
2024-03-02T19:49:46.797Z,27.90
2024-03-02T19:52:13.604Z,26.60
2024-03-02T19:54:40.822Z,28.60
2024-03-02T19:57:07.560Z,29.10
2024-03-02T19:59:34.442Z,28.20
2024-03-02T20:02:01.984Z,27.40
2024-03-02T20:04:28.645Z,27.60
2024-03-02T20:06:55.875Z,28.00
2024-03-02T20:09:22.775Z,28.20
2024-03-02T20:11:49.692Z,28.10
2024-03-02T20:14:16.502Z,26.70
2024-03-02T20:16:44.613Z,27.90
2024-03-02T20:19:11.721Z,28.20
2024-03-02T20:21:38.480Z,27.50
2024-03-02T20:24:06.269Z,28.10
2024-03-02T20:26:33.485Z,27.70
2024-03-02T20:29:00.166Z,26.90
2024-03-02T20:31:26.807Z,27.00
2024-03-02T20:33:53.560Z,27.80
2024-03-02T20:36:20.445Z,26.50
2024-03-02T20:38:47.618Z,25.80
2024-03-02T20:41:39.598Z,27.60
2024-03-02T20:44:07.204Z,26.70
2024-03-02T20:46:34.076Z,26.30
2024-03-02T20:49:00.961Z,26.90
2024-03-02T20:51:31.764Z,26.40
2024-03-02T20:53:59.472Z,26.90
2024-03-02T20:56:26.725Z,25.20
2024-03-02T20:58:53.655Z,25.00
2024-03-02T21:01:23.687Z,24.80
2024-03-02T21:03:50.663Z,28.90
2024-03-02T21:06:17.656Z,26.70
2024-03-02T21:08:44.539Z,26.50
2024-03-02T21:11:12.077Z,25.70
2024-03-02T21:13:39.216Z,25.60
2024-03-02T21:16:07.586Z,23.40
2024-03-02T21:18:39.379Z,26.20
2024-03-02T21:21:06.823Z,25.80
2024-03-02T21:23:34.963Z,25.50
2024-03-02T21:26:03.704Z,23.50
2024-03-02T21:28:31.116Z,24.10
2024-03-02T21:30:57.978Z,23.90
2024-03-02T21:33:28.362Z,23.30
2024-03-02T21:35:55.476Z,24.10
2024-03-02T21:38:22.228Z,23.50
2024-03-02T21:40:49.874Z,23.20
2024-03-02T21:43:17.964Z,24.10
2024-03-02T21:45:45.405Z,22.60
2024-03-02T21:48:12.092Z,25.20
2024-03-02T21:50:39.613Z,22.30
2024-03-02T21:53:06.580Z,22.60
2024-03-02T21:55:34.357Z,21.70
2024-03-02T21:58:01.564Z,22.70
2024-03-02T22:00:28.705Z,24.20
2024-03-02T22:02:58.127Z,22.20
2024-03-02T22:05:26.072Z,20.40
2024-03-02T22:07:55.020Z,22.30
2024-03-02T22:10:21.812Z,21.10
2024-03-02T22:12:48.950Z,21.80
2024-03-02T22:15:15.620Z,19.30
2024-03-02T22:17:42.261Z,22.30
2024-03-02T22:20:11.118Z,21.90
2024-03-02T22:22:39.844Z,22.50
2024-03-02T22:25:07.192Z,21.70
2024-03-02T22:27:36.118Z,22.00
2024-03-02T22:30:07.895Z,22.90
2024-03-02T22:32:34.765Z,22.00
2024-03-02T22:35:01.412Z,21.70
2024-03-02T22:37:28.373Z,21.30
2024-03-02T22:39:55.118Z,22.00
2024-03-02T22:42:21.866Z,22.20
2024-03-02T22:44:48.508Z,20.80
2024-03-02T22:47:15.301Z,21.60
2024-03-02T22:49:41.941Z,20.90
2024-03-02T22:52:08.828Z,20.20
2024-03-02T22:54:35.575Z,19.70
2024-03-02T22:57:02.421Z,20.80
2024-03-02T22:59:29.049Z,21.70
2024-03-02T23:01:56.103Z,21.20
2024-03-02T23:04:22.963Z,20.20
2024-03-02T23:06:49.832Z,21.60
2024-03-02T23:09:16.863Z,20.30
2024-03-02T23:11:43.564Z,21.20
2024-03-02T23:14:10.818Z,20.20
2024-03-02T23:16:39.824Z,21.10
2024-03-02T23:19:06.714Z,20.60
2024-03-02T23:21:33.381Z,21.00
2024-03-02T23:24:00.040Z,20.40
2024-03-02T23:26:26.679Z,20.80
2024-03-02T23:28:53.657Z,20.50
2024-03-02T23:31:20.399Z,20.70
2024-03-02T23:33:49.424Z,20.00
2024-03-02T23:36:16.315Z,21.30
2024-03-02T23:38:42.956Z,21.20
2024-03-02T23:41:13.015Z,20.10
2024-03-02T23:43:39.866Z,20.50
2024-03-02T23:46:08.267Z,20.30
2024-03-02T23:48:35.362Z,21.60
2024-03-02T23:51:02.449Z,19.80
2024-03-02T23:53:30.608Z,21.30
2024-03-02T23:56:09.209Z,21.40
2024-03-02T23:58:36.137Z,20.80
